createdAt,value
2023-05-14T00:02:03.905Z,17.10
2023-05-14T00:05:06.400Z,17.10
2023-05-14T00:08:08.688Z,17.10
2023-05-14T00:11:10.806Z,17.10
2023-05-14T00:14:12.859Z,17.10
2023-05-14T00:17:14.905Z,17.10
2023-05-14T00:20:17.096Z,17.10
2023-05-14T00:23:19.431Z,17.10
2023-05-14T00:26:21.622Z,17.00
2023-05-14T00:29:23.790Z,17.00
2023-05-14T00:32:26.033Z,17.00
2023-05-14T00:35:28.143Z,16.90
2023-05-14T00:38:30.460Z,16.90
2023-05-14T00:41:32.702Z,16.90
2023-05-14T00:44:36.659Z,17.00
2023-05-14T00:47:40.281Z,17.00
2023-05-14T00:50:43.147Z,17.00
2023-05-14T00:53:46.927Z,17.00
2023-05-14T00:56:51.307Z,17.10
2023-05-14T00:59:54.037Z,17.10
2023-05-14T01:02:56.407Z,17.10
2023-05-14T01:06:10.649Z,17.10
2023-05-14T01:09:18.184Z,17.10
2023-05-14T01:12:34.066Z,17.00
2023-05-14T01:15:38.322Z,17.10
2023-05-14T01:18:42.621Z,17.00
2023-05-14T01:21:44.800Z,17.00
2023-05-14T01:24:46.920Z,17.00
2023-05-14T01:28:12.639Z,17.00
2023-05-14T01:31:28.102Z,17.00
2023-05-14T01:34:31.502Z,17.00
2023-05-14T01:37:33.715Z,16.90
2023-05-14T01:40:37.159Z,16.90
2023-05-14T01:43:41.558Z,16.90
2023-05-14T01:46:43.617Z,16.90
2023-05-14T01:49:45.960Z,16.90
2023-05-14T01:52:53.571Z,16.90
2023-05-14T01:55:55.684Z,16.90
2023-05-14T01:58:58.100Z,16.90
2023-05-14T02:02:00.331Z,16.90
2023-05-14T02:05:03.898Z,16.90
2023-05-14T02:08:07.738Z,16.90
2023-05-14T02:11:09.855Z,16.90
2023-05-14T02:14:12.091Z,16.90
2023-05-14T02:17:17.677Z,16.90
2023-05-14T02:20:20.154Z,16.90
2023-05-14T02:23:31.066Z,16.90
2023-05-14T02:26:40.256Z,16.90
2023-05-14T02:29:42.512Z,16.90
2023-05-14T02:32:44.663Z,16.90
2023-05-14T02:35:46.859Z,16.90
2023-05-14T02:38:49.122Z,17.00
2023-05-14T02:41:51.245Z,17.00
2023-05-14T02:44:53.418Z,17.00
2023-05-14T02:47:55.609Z,17.00
2023-05-14T02:50:57.682Z,17.00
2023-05-14T02:53:59.940Z,16.90
2023-05-14T02:57:02.113Z,16.90
2023-05-14T03:00:04.756Z,16.90
2023-05-14T03:03:07.603Z,16.90
2023-05-14T03:06:10.788Z,16.90
2023-05-14T03:09:12.905Z,16.80
2023-05-14T03:12:15.083Z,16.80
2023-05-14T03:15:17.353Z,16.80
2023-05-14T03:18:19.887Z,16.80
2023-05-14T03:21:22.066Z,16.80
2023-05-14T03:24:24.148Z,16.80
2023-05-14T03:27:26.264Z,16.80
2023-05-14T03:30:28.458Z,16.80
2023-05-14T03:33:31.299Z,16.80
2023-05-14T03:36:36.530Z,16.80
2023-05-14T03:39:38.609Z,16.80
2023-05-14T03:42:41.517Z,16.70
2023-05-14T03:45:44.291Z,16.60
2023-05-14T03:48:46.830Z,16.70
2023-05-14T03:51:49.106Z,16.60
2023-05-14T03:54:51.308Z,16.60
2023-05-14T03:57:53.456Z,16.50
2023-05-14T04:00:55.755Z,16.50
2023-05-14T04:03:58.320Z,16.40
2023-05-14T04:07:00.735Z,16.40
2023-05-14T04:10:04.696Z,16.40
2023-05-14T04:13:07.161Z,16.30
2023-05-14T04:16:09.328Z,16.30
2023-05-14T04:19:11.723Z,16.20
2023-05-14T04:22:13.926Z,16.20
2023-05-14T04:25:16.224Z,16.30
2023-05-14T04:28:18.371Z,16.20
2023-05-14T04:31:20.564Z,16.20
2023-05-14T04:34:23.048Z,16.20
2023-05-14T04:37:26.229Z,16.20
2023-05-14T04:40:31.226Z,16.20
2023-05-14T04:43:33.477Z,16.20
2023-05-14T04:46:35.645Z,16.20
2023-05-14T04:49:37.840Z,16.20
2023-05-14T04:52:39.998Z,16.10
2023-05-14T04:55:42.353Z,16.10
2023-05-14T04:58:44.580Z,16.10
2023-05-14T05:01:46.830Z,16.10
2023-05-14T05:04:48.884Z,16.10
2023-05-14T05:07:51.000Z,16.10
2023-05-14T05:10:53.252Z,16.10
2023-05-14T05:13:55.404Z,16.10
2023-05-14T05:16:57.596Z,16.10
2023-05-14T05:19:59.882Z,16.10
2023-05-14T05:23:01.916Z,16.00
2023-05-14T05:26:04.122Z,16.00
2023-05-14T05:29:06.471Z,16.00
2023-05-14T05:32:08.872Z,16.00
2023-05-14T05:35:10.989Z,16.00
2023-05-14T05:38:13.143Z,16.10
2023-05-14T05:41:21.174Z,16.10
2023-05-14T05:44:23.282Z,16.10
2023-05-14T05:47:25.376Z,16.10
2023-05-14T05:50:27.727Z,16.20
2023-05-14T05:53:29.784Z,16.40
2023-05-14T05:56:32.069Z,16.60
2023-05-14T05:59:34.111Z,16.80
2023-05-14T06:02:36.571Z,17.20
2023-05-14T06:05:38.943Z,17.50
2023-05-14T06:08:42.296Z,17.80
2023-05-14T06:11:44.412Z,18.10
2023-05-14T06:14:46.601Z,18.50
2023-05-14T06:17:48.868Z,19.00
2023-05-14T06:20:50.961Z,19.30
2023-05-14T06:23:53.215Z,19.50
2023-05-14T06:26:55.519Z,19.70
2023-05-14T06:29:57.854Z,20.10
2023-05-14T06:33:00.104Z,20.20
2023-05-14T06:36:05.878Z,20.60
2023-05-14T06:39:07.935Z,20.70
2023-05-14T06:42:10.164Z,21.30
2023-05-14T06:45:12.439Z,21.60
2023-05-14T06:48:14.664Z,22.20
2023-05-14T06:51:16.799Z,22.60
2023-05-14T06:54:20.588Z,22.60
2023-05-14T06:57:22.835Z,23.40
2023-05-14T07:00:25.235Z,23.90
2023-05-14T07:03:29.184Z,23.90
2023-05-14T07:06:33.844Z,24.50
2023-05-14T07:09:36.379Z,25.00
2023-05-14T07:12:38.647Z,25.10
2023-05-14T07:15:40.731Z,25.40
2023-05-14T07:18:43.986Z,25.20
2023-05-14T07:21:46.241Z,25.80
2023-05-14T07:24:49.321Z,26.10
2023-05-14T07:27:51.373Z,26.00
2023-05-14T07:30:54.317Z,25.90
2023-05-14T07:33:56.633Z,26.60
2023-05-14T07:36:59.447Z,27.00
2023-05-14T07:40:01.552Z,27.70
2023-05-14T07:43:03.732Z,27.50
2023-05-14T07:46:06.027Z,28.00
2023-05-14T07:49:08.168Z,28.50
2023-05-14T07:52:10.326Z,27.90
2023-05-14T07:55:13.143Z,28.50
2023-05-14T07:58:16.359Z,28.10
2023-05-14T08:01:18.446Z,28.10
2023-05-14T08:04:20.518Z,27.90
2023-05-14T08:07:22.722Z,28.40
2023-05-14T08:10:25.680Z,28.40
2023-05-14T08:13:28.248Z,28.50
2023-05-14T08:16:30.622Z,29.00
2023-05-14T08:19:33.266Z,29.80
2023-05-14T08:22:35.426Z,29.60
2023-05-14T08:25:37.505Z,29.70
2023-05-14T08:28:39.682Z,30.40
2023-05-14T08:31:42.281Z,29.60
2023-05-14T08:34:44.368Z,29.60
2023-05-14T08:37:46.594Z,30.10
2023-05-14T08:41:01.148Z,30.40
2023-05-14T08:44:13.170Z,30.30
2023-05-14T08:47:17.761Z,30.70
2023-05-14T08:50:23.774Z,30.70
2023-05-14T08:53:26.380Z,30.60
2023-05-14T08:56:32.541Z,31.10
2023-05-14T08:59:35.000Z,30.80
2023-05-14T09:02:37.418Z,30.80
2023-05-14T09:05:40.513Z,30.90
2023-05-14T09:08:43.102Z,31.60
2023-05-14T09:11:52.594Z,32.00
2023-05-14T09:14:55.294Z,32.40
2023-05-14T09:17:57.956Z,32.90
2023-05-14T09:21:00.232Z,33.30
2023-05-14T09:24:02.467Z,33.20
2023-05-14T09:27:04.830Z,33.70
2023-05-14T09:30:12.043Z,33.60
2023-05-14T09:33:27.385Z,33.10
2023-05-14T09:36:29.684Z,34.20
2023-05-14T09:39:33.835Z,33.80
2023-05-14T09:42:36.147Z,34.20
2023-05-14T09:45:38.541Z,34.00
2023-05-14T09:48:40.895Z,34.20
2023-05-14T09:51:43.253Z,34.00
2023-05-14T09:54:46.920Z,33.70
2023-05-14T09:57:49.033Z,33.00
2023-05-14T10:00:52.166Z,33.60
2023-05-14T10:03:55.503Z,34.40
2023-05-14T10:06:57.708Z,34.50
2023-05-14T10:10:03.923Z,34.10
2023-05-14T10:13:13.392Z,34.00
2023-05-14T10:16:32.166Z,34.10
2023-05-14T10:19:35.456Z,34.00
2023-05-14T10:22:37.539Z,33.90
2023-05-14T10:25:41.215Z,33.80
2023-05-14T10:28:44.067Z,33.70
2023-05-14T10:31:53.912Z,33.80
2023-05-14T10:34:56.262Z,33.30
2023-05-14T10:37:59.603Z,33.40
2023-05-14T10:41:07.558Z,33.20
2023-05-14T10:44:10.471Z,33.50
2023-05-14T10:47:12.914Z,33.40
2023-05-14T10:50:16.158Z,33.20
2023-05-14T10:53:18.746Z,32.90
2023-05-14T10:56:21.613Z,32.70
2023-05-14T10:59:28.354Z,32.50
2023-05-14T11:02:37.415Z,32.50
2023-05-14T11:05:41.423Z,32.40
2023-05-14T11:08:44.733Z,32.50
2023-05-14T11:11:47.762Z,32.60
2023-05-14T11:14:51.184Z,33.10
2023-05-14T11:17:54.175Z,33.20
2023-05-14T11:21:03.051Z,33.10
2023-05-14T11:24:06.092Z,32.40
2023-05-14T11:27:09.361Z,31.90
2023-05-14T11:30:21.866Z,31.70
2023-05-14T11:33:24.241Z,30.80
2023-05-14T11:36:26.399Z,30.20
2023-05-14T11:39:28.633Z,30.00
2023-05-14T11:42:30.734Z,30.00
2023-05-14T11:45:33.394Z,29.80
2023-05-14T11:48:35.551Z,29.70
2023-05-14T11:51:37.939Z,29.30
2023-05-14T11:54:41.126Z,29.00
2023-05-14T11:57:43.620Z,28.70
2023-05-14T12:00:47.512Z,28.20
2023-05-14T12:03:50.848Z,27.80
2023-05-14T12:06:53.785Z,28.00
2023-05-14T12:10:00.566Z,28.20
2023-05-14T12:13:07.360Z,28.30
2023-05-14T12:16:09.582Z,28.40
2023-05-14T12:19:14.211Z,28.40
2023-05-14T12:22:18.789Z,28.40
2023-05-14T12:25:21.183Z,28.20
2023-05-14T12:28:25.577Z,28.10
2023-05-14T12:31:34.697Z,28.10
2023-05-14T12:34:38.028Z,27.90
2023-05-14T12:37:40.342Z,27.70
2023-05-14T12:40:42.387Z,27.80
2023-05-14T12:43:45.004Z,28.10
2023-05-14T12:46:47.263Z,28.40
2023-05-14T12:49:49.319Z,28.60
2023-05-14T12:52:51.515Z,28.70
2023-05-14T12:55:54.647Z,28.60
2023-05-14T12:58:57.710Z,28.70
2023-05-14T13:02:12.181Z,28.40
2023-05-14T13:05:14.601Z,28.60
2023-05-14T13:08:17.990Z,28.80
2023-05-14T13:11:21.314Z,28.80
2023-05-14T13:14:23.555Z,28.20
2023-05-14T13:17:25.672Z,28.20
2023-05-14T13:20:34.072Z,28.50
2023-05-14T13:23:36.300Z,28.40
2023-05-14T13:26:38.461Z,28.50
2023-05-14T13:29:40.624Z,28.60
2023-05-14T13:32:43.661Z,28.60
2023-05-14T13:35:45.813Z,28.20
2023-05-14T13:38:47.865Z,28.20
2023-05-14T13:41:51.109Z,28.10
2023-05-14T13:44:53.207Z,28.10
2023-05-14T13:47:56.814Z,28.10
2023-05-14T13:50:59.424Z,28.00
2023-05-14T13:54:01.488Z,28.10
2023-05-14T13:57:03.669Z,28.20
2023-05-14T14:00:06.761Z,28.00
2023-05-14T14:03:09.382Z,27.90
2023-05-14T14:06:12.417Z,27.80
2023-05-14T14:09:14.770Z,27.80
2023-05-14T14:12:16.855Z,27.80
2023-05-14T14:15:18.942Z,27.70
2023-05-14T14:18:21.197Z,27.60
2023-05-14T14:21:23.385Z,27.50
2023-05-14T14:24:25.725Z,27.40
2023-05-14T14:27:28.361Z,27.20
2023-05-14T14:30:30.494Z,27.20
2023-05-14T14:33:32.656Z,26.90
2023-05-14T14:36:34.856Z,26.80
2023-05-14T14:39:36.935Z,26.80
2023-05-14T14:42:39.240Z,26.70
2023-05-14T14:45:42.951Z,26.70
2023-05-14T14:48:45.414Z,26.70
2023-05-14T14:51:47.558Z,26.70
2023-05-14T14:54:49.838Z,26.70
2023-05-14T14:57:52.167Z,26.40
2023-05-14T15:00:56.185Z,26.40
2023-05-14T15:03:58.313Z,26.30
2023-05-14T15:07:00.961Z,26.20
2023-05-14T15:10:03.059Z,26.20
2023-05-14T15:13:06.754Z,26.10
2023-05-14T15:16:09.037Z,26.20
2023-05-14T15:19:15.403Z,26.20
2023-05-14T15:22:17.927Z,26.30
2023-05-14T15:25:20.950Z,26.20
2023-05-14T15:28:23.072Z,26.00
2023-05-14T15:31:25.701Z,25.80
2023-05-14T15:34:28.063Z,25.70
2023-05-14T15:37:40.334Z,25.70
2023-05-14T15:40:42.370Z,25.70
2023-05-14T15:43:44.758Z,25.50
2023-05-14T15:46:46.990Z,25.60
2023-05-14T15:49:49.720Z,25.60
2023-05-14T15:52:51.895Z,25.50
2023-05-14T15:55:54.115Z,25.40
2023-05-14T15:58:56.166Z,25.30
2023-05-14T16:01:58.545Z,25.30
2023-05-14T16:05:00.631Z,25.10
2023-05-14T16:08:02.760Z,24.90
2023-05-14T16:11:05.579Z,24.90
2023-05-14T16:14:07.664Z,24.80
2023-05-14T16:17:09.794Z,24.90
2023-05-14T16:20:12.710Z,24.90
2023-05-14T16:23:14.743Z,24.80
2023-05-14T16:26:17.378Z,24.80
2023-05-14T16:29:19.506Z,24.70
2023-05-14T16:32:22.873Z,24.60
2023-05-14T16:35:24.991Z,24.40
2023-05-14T16:38:27.035Z,24.50
2023-05-14T16:41:29.106Z,24.40
2023-05-14T16:44:31.795Z,24.40
2023-05-14T16:47:34.314Z,24.40
2023-05-14T16:50:36.626Z,24.30
2023-05-14T16:53:39.296Z,24.30
2023-05-14T16:56:42.096Z,24.10
2023-05-14T16:59:44.163Z,24.10
2023-05-14T17:02:49.304Z,24.10
2023-05-14T17:05:52.357Z,24.10
2023-05-14T17:08:54.402Z,24.10
2023-05-14T17:11:56.686Z,24.10
2023-05-14T17:15:05.481Z,24.00
2023-05-14T17:18:08.015Z,24.10
2023-05-14T17:21:10.940Z,24.10
2023-05-14T17:24:13.243Z,24.00
2023-05-14T17:27:16.671Z,23.80
2023-05-14T17:30:19.276Z,23.80
2023-05-14T17:33:21.696Z,23.40
2023-05-14T17:36:23.960Z,23.30
2023-05-14T17:39:26.631Z,23.10
2023-05-14T17:42:28.722Z,23.00
2023-05-14T17:45:42.627Z,23.00
2023-05-14T17:48:48.782Z,22.80
2023-05-14T17:51:50.797Z,22.70
2023-05-14T17:54:53.104Z,22.70
2023-05-14T17:57:55.430Z,22.40
2023-05-14T18:00:57.998Z,22.40
2023-05-14T18:04:01.421Z,22.50
2023-05-14T18:07:03.778Z,22.50
2023-05-14T18:10:06.632Z,22.50
2023-05-14T18:13:09.024Z,22.30
2023-05-14T18:16:11.299Z,22.20
2023-05-14T18:19:14.952Z,22.30
2023-05-14T18:22:17.126Z,22.10
2023-05-14T18:25:21.835Z,22.10
2023-05-14T18:28:24.000Z,21.80
2023-05-14T18:31:27.950Z,21.80
2023-05-14T18:34:30.323Z,21.80
2023-05-14T18:37:33.398Z,21.80
2023-05-14T18:40:36.352Z,21.80
2023-05-14T18:43:38.392Z,21.60
2023-05-14T18:46:40.704Z,21.50
2023-05-14T18:49:43.690Z,21.20
2023-05-14T18:52:45.793Z,21.30
2023-05-14T18:55:48.048Z,21.20
2023-05-14T18:58:50.192Z,21.10
2023-05-14T19:01:53.396Z,21.00
2023-05-14T19:04:55.787Z,20.90
2023-05-14T19:07:58.193Z,20.80
2023-05-14T19:11:00.465Z,20.80
2023-05-14T19:14:02.942Z,20.60
2023-05-14T19:17:05.650Z,20.50
2023-05-14T19:20:09.519Z,20.40
2023-05-14T19:23:11.973Z,20.30
2023-05-14T19:26:14.024Z,20.30
2023-05-14T19:29:16.159Z,20.10
2023-05-14T19:32:18.436Z,20.10
2023-05-14T19:35:20.948Z,19.90
2023-05-14T19:38:23.852Z,19.90
2023-05-14T19:41:26.593Z,19.80
2023-05-14T19:44:30.900Z,19.70
2023-05-14T19:47:33.410Z,19.70
2023-05-14T19:50:38.073Z,19.50
2023-05-14T19:53:40.726Z,19.60
2023-05-14T19:56:42.798Z,19.60
2023-05-14T19:59:45.380Z,19.50
2023-05-14T20:02:48.034Z,19.40
2023-05-14T20:05:50.277Z,19.30
2023-05-14T20:08:55.361Z,19.20
2023-05-14T20:11:57.686Z,19.10
2023-05-14T20:15:00.238Z,19.00
2023-05-14T20:18:03.418Z,18.80
2023-05-14T20:21:05.738Z,18.70
2023-05-14T20:24:07.909Z,18.60
2023-05-14T20:27:10.154Z,18.60
2023-05-14T20:30:12.716Z,18.50
2023-05-14T20:33:22.572Z,18.50
2023-05-14T20:36:25.641Z,18.50
2023-05-14T20:39:28.420Z,18.40
2023-05-14T20:42:30.612Z,18.40
2023-05-14T20:45:33.040Z,18.50
2023-05-14T20:48:35.520Z,18.30
2023-05-14T20:51:38.054Z,18.30
2023-05-14T20:54:40.487Z,18.40
2023-05-14T20:57:43.698Z,18.30
2023-05-14T21:00:46.063Z,18.20
2023-05-14T21:03:48.363Z,18.20
2023-05-14T21:06:51.505Z,18.10
2023-05-14T21:09:53.673Z,18.00
2023-05-14T21:12:55.803Z,18.00
2023-05-14T21:16:00.376Z,17.90
2023-05-14T21:19:05.619Z,17.90
2023-05-14T21:22:08.835Z,17.80
2023-05-14T21:25:11.213Z,17.70
2023-05-14T21:28:13.369Z,17.70
2023-05-14T21:31:15.516Z,17.60
2023-05-14T21:34:17.805Z,17.60
2023-05-14T21:37:21.520Z,17.60
2023-05-14T21:40:23.646Z,17.60
2023-05-14T21:43:26.185Z,17.50
2023-05-14T21:46:29.430Z,17.30
2023-05-14T21:49:31.836Z,17.30
2023-05-14T21:52:34.216Z,17.30
2023-05-14T21:55:36.465Z,17.20
2023-05-14T21:58:38.737Z,17.30
2023-05-14T22:01:56.148Z,17.30
2023-05-14T22:05:03.264Z,17.10
2023-05-14T22:08:06.128Z,17.20
2023-05-14T22:11:08.612Z,17.20
2023-05-14T22:14:10.785Z,17.00
2023-05-14T22:17:13.613Z,17.00
2023-05-14T22:20:16.071Z,16.90
2023-05-14T22:23:18.330Z,16.90
2023-05-14T22:26:21.852Z,16.90
2023-05-14T22:29:24.250Z,16.90
2023-05-14T22:32:26.645Z,16.80
2023-05-14T22:35:29.867Z,16.70
2023-05-14T22:38:31.916Z,16.80
2023-05-14T22:41:34.190Z,16.80
2023-05-14T22:44:37.163Z,16.80
2023-05-14T22:47:39.535Z,16.90
2023-05-14T22:50:41.904Z,16.90
2023-05-14T22:53:44.054Z,16.90
2023-05-14T22:56:46.409Z,16.90
2023-05-14T22:59:49.659Z,16.90
2023-05-14T23:02:55.952Z,16.90
2023-05-14T23:05:58.124Z,16.90
2023-05-14T23:09:05.569Z,16.80
2023-05-14T23:12:08.031Z,16.80
2023-05-14T23:15:10.462Z,16.80
2023-05-14T23:18:12.843Z,16.90
2023-05-14T23:21:15.270Z,16.80
2023-05-14T23:24:17.478Z,16.80
2023-05-14T23:27:19.868Z,16.80
2023-05-14T23:30:21.945Z,16.70
2023-05-14T23:33:25.176Z,16.80
2023-05-14T23:36:27.580Z,16.70
2023-05-14T23:39:30.442Z,16.70
2023-05-14T23:42:32.683Z,16.70
2023-05-14T23:45:34.902Z,16.70
2023-05-14T23:48:37.284Z,16.70
2023-05-14T23:51:39.441Z,16.70
2023-05-14T23:54:41.635Z,16.70
2023-05-14T23:57:43.886Z,16.70
